sensor_id;sensor_type;location;lat;lon;timestamp;pressure;altitude;pressure_sealevel;temperature;humidity
22580;BME280;11456;47.030;15.396;2022-08-02T00:00:08;97592.69;;;21.55;76.51
22580;BME280;11456;47.030;15.396;2022-08-02T00:02:36;97594.47;;;21.68;75.78
22580;BME280;11456;47.030;15.396;2022-08-02T00:05:04;97596.16;;;21.69;76.28
22580;BME280;11456;47.030;15.396;2022-08-02T00:07:31;97596.81;;;21.39;78.23
22580;BME280;11456;47.030;15.396;2022-08-02T00:10:07;97602.75;;;21.36;78.49
22580;BME280;11456;47.030;15.396;2022-08-02T00:12:34;97607.84;;;21.26;78.98
22580;BME280;11456;47.030;15.396;2022-08-02T00:15:01;97620.19;;;21.04;79.47
22580;BME280;11456;47.030;15.396;2022-08-02T00:17:27;97615.06;;;21.20;75.83
22580;BME280;11456;47.030;15.396;2022-08-02T00:19:54;97616.50;;;21.54;72.11
22580;BME280;11456;47.030;15.396;2022-08-02T00:22:21;97625.84;;;21.72;69.63
22580;BME280;11456;47.030;15.396;2022-08-02T00:24:47;97628.59;;;21.72;69.20
22580;BME280;11456;47.030;15.396;2022-08-02T00:27:14;97642.75;;;21.93;67.96
22580;BME280;11456;47.030;15.396;2022-08-02T00:29:41;97640.88;;;21.69;69.36
22580;BME280;11456;47.030;15.396;2022-08-02T00:32:22;97644.50;;;21.88;71.12
22580;BME280;11456;47.030;15.396;2022-08-02T00:34:50;97659.84;;;21.64;74.55
22580;BME280;11456;47.030;15.396;2022-08-02T00:37:16;97656.47;;;20.99;78.94
22580;BME280;11456;47.030;15.396;2022-08-02T00:39:44;97658.34;;;20.99;80.70
22580;BME280;11456;47.030;15.396;2022-08-02T00:42:13;97649.38;;;20.78;81.90
22580;BME280;11456;47.030;15.396;2022-08-02T00:44:41;97647.78;;;20.51;85.54
22580;BME280;11456;47.030;15.396;2022-08-02T00:47:07;97649.06;;;20.42;88.10
22580;BME280;11456;47.030;15.396;2022-08-02T00:49:34;97632.72;;;20.22;89.89
22580;BME280;11456;47.030;15.396;2022-08-02T00:52:01;97628.88;;;20.43;89.94
22580;BME280;11456;47.030;15.396;2022-08-02T00:54:28;97627.50;;;20.78;88.81
22580;BME280;11456;47.030;15.396;2022-08-02T00:56:54;97641.47;;;20.57;89.87
22580;BME280;11456;47.030;15.396;2022-08-02T00:59:21;97633.94;;;20.46;89.47
22580;BME280;11456;47.030;15.396;2022-08-02T01:01:48;97643.63;;;20.29;90.09
22580;BME280;11456;47.030;15.396;2022-08-02T01:04:25;97633.75;;;20.28;90.10
22580;BME280;11456;47.030;15.396;2022-08-02T01:07:01;97649.53;;;20.13;90.43
22580;BME280;11456;47.030;15.396;2022-08-02T01:09:43;97644.94;;;19.93;93.13
22580;BME280;11456;47.030;15.396;2022-08-02T01:12:10;97646.00;;;19.79;94.76
22580;BME280;11456;47.030;15.396;2022-08-02T01:14:40;97655.47;;;19.96;94.75
22580;BME280;11456;47.030;15.396;2022-08-02T01:17:13;97661.53;;;19.98;95.18
22580;BME280;11456;47.030;15.396;2022-08-02T01:29:45;97654.16;;;20.06;92.39
22580;BME280;11456;47.030;15.396;2022-08-02T01:31:50;97659.25;;;19.82;94.51
22580;BME280;11456;47.030;15.396;2022-08-02T01:34:36;97658.81;;;19.72;95.41
22580;BME280;11456;47.030;15.396;2022-08-02T01:40:11;97645.38;;;19.77;96.44
22580;BME280;11456;47.030;15.396;2022-08-02T01:42:43;97645.78;;;19.87;96.40
22580;BME280;11456;47.030;15.396;2022-08-02T01:45:12;97647.03;;;19.78;97.70
22580;BME280;11456;47.030;15.396;2022-08-02T01:47:41;97643.69;;;19.63;98.60
22580;BME280;11456;47.030;15.396;2022-08-02T01:50:12;97644.72;;;19.62;100.00
22580;BME280;11456;47.030;15.396;2022-08-02T01:52:48;97645.38;;;19.64;98.70
22580;BME280;11456;47.030;15.396;2022-08-02T01:55:23;97633.16;;;19.67;98.41
22580;BME280;11456;47.030;15.396;2022-08-02T01:58:13;97632.28;;;19.40;100.00
22580;BME280;11456;47.030;15.396;2022-08-02T02:00:42;97629.38;;;19.48;100.00
22580;BME280;11456;47.030;15.396;2022-08-02T02:03:17;97634.84;;;19.61;100.00
22580;BME280;11456;47.030;15.396;2022-08-02T02:05:46;97636.53;;;19.62;100.00
22580;BME280;11456;47.030;15.396;2022-08-02T02:08:15;97628.53;;;19.60;100.00
22580;BME280;11456;47.030;15.396;2022-08-02T02:10:54;97630.66;;;19.58;98.79
22580;BME280;11456;47.030;15.396;2022-08-02T02:13:23;97625.63;;;19.62;97.60
22580;BME280;11456;47.030;15.396;2022-08-02T02:16:02;97621.00;;;19.63;95.68
22580;BME280;11456;47.030;15.396;2022-08-02T02:18:31;97636.53;;;19.62;94.22
22580;BME280;11456;47.030;15.396;2022-08-02T02:20:59;97626.00;;;19.72;93.17
22580;BME280;11456;47.030;15.396;2022-08-02T02:23:26;97624.97;;;19.67;93.99
22580;BME280;11456;47.030;15.396;2022-08-02T02:25:58;97628.97;;;19.64;92.97
22580;BME280;11456;47.030;15.396;2022-08-02T02:28:30;97626.44;;;19.63;94.04
22580;BME280;11456;47.030;15.396;2022-08-02T02:31:05;97631.28;;;19.47;95.59
22580;BME280;11456;47.030;15.396;2022-08-02T02:33:36;97628.53;;;19.67;94.88
22580;BME280;11456;47.030;15.396;2022-08-02T02:36:04;97629.38;;;19.61;94.16
22580;BME280;11456;47.030;15.396;2022-08-02T02:38:33;97639.91;;;19.64;94.15
22580;BME280;11456;47.030;15.396;2022-08-02T02:41:03;97636.34;;;19.70;92.53
22580;BME280;11456;47.030;15.396;2022-08-02T02:43:32;97634.44;;;19.64;92.85
22580;BME280;11456;47.030;15.396;2022-08-02T02:46:03;97628.09;;;19.37;94.57
22580;BME280;11456;47.030;15.396;2022-08-02T02:48:30;97627.66;;;19.34;96.52
22580;BME280;11456;47.030;15.396;2022-08-02T02:50:58;97620.78;;;19.51;94.68
22580;BME280;11456;47.030;15.396;2022-08-02T02:53:26;97618.91;;;19.58;94.78
22580;BME280;11456;47.030;15.396;2022-08-02T02:56:15;97625.16;;;19.78;94.07
22580;BME280;11456;47.030;15.396;2022-08-02T02:58:43;97618.47;;;19.48;95.75
22580;BME280;11456;47.030;15.396;2022-08-02T03:01:10;97625.63;;;19.62;95.62
22580;BME280;11456;47.030;15.396;2022-08-02T03:04:16;97621.81;;;19.76;93.71
22580;BME280;11456;47.030;15.396;2022-08-02T03:06:43;97620.97;;;19.82;93.73
22580;BME280;11456;47.030;15.396;2022-08-02T03:09:10;97613.84;;;19.75;95.95
22580;BME280;11456;47.030;15.396;2022-08-02T03:11:38;97613.81;;;19.94;94.60
22580;BME280;11456;47.030;15.396;2022-08-02T03:14:09;97611.63;;;20.23;90.69
22580;BME280;11456;47.030;15.396;2022-08-02T03:16:47;97608.53;;;20.06;93.94
22580;BME280;11456;47.030;15.396;2022-08-02T03:19:15;97610.69;;;20.68;88.66
22580;BME280;11456;47.030;15.396;2022-08-02T03:21:43;97620.31;;;20.13;92.77
22580;BME280;11456;47.030;15.396;2022-08-02T03:24:10;97615.50;;;19.89;93.45
22580;BME280;11456;47.030;15.396;2022-08-02T03:26:38;97607.72;;;19.92;94.06
22580;BME280;11456;47.030;15.396;2022-08-02T03:29:05;97608.38;;;19.68;96.67
22580;BME280;11456;47.030;15.396;2022-08-02T03:31:39;97603.09;;;19.73;97.18
22580;BME280;11456;47.030;15.396;2022-08-02T03:34:07;97607.13;;;19.77;97.62
22580;BME280;11456;47.030;15.396;2022-08-02T03:36:35;97602.06;;;19.87;95.75
22580;BME280;11456;47.030;15.396;2022-08-02T03:39:03;97610.47;;;19.66;97.37
22580;BME280;11456;47.030;15.396;2022-08-02T03:41:30;97613.41;;;19.45;98.93
22580;BME280;11456;47.030;15.396;2022-08-02T03:43:59;97613.00;;;19.54;97.81
22580;BME280;11456;47.030;15.396;2022-08-02T03:46:26;97621.38;;;19.46;98.83
22580;BME280;11456;47.030;15.396;2022-08-02T03:48:53;97623.28;;;19.52;99.13
22580;BME280;11456;47.030;15.396;2022-08-02T03:51:21;97627.69;;;19.53;97.85
22580;BME280;11456;47.030;15.396;2022-08-02T03:53:49;97626.41;;;19.30;99.44
22580;BME280;11456;47.030;15.396;2022-08-02T03:56:18;97616.38;;;19.50;98.46
22580;BME280;11456;47.030;15.396;2022-08-02T03:58:45;97623.50;;;19.51;97.75
22580;BME280;11456;47.030;15.396;2022-08-02T04:01:15;97620.16;;;19.69;94.86
22580;BME280;11456;47.030;15.396;2022-08-02T04:03:42;97623.50;;;19.77;94.60
22580;BME280;11456;47.030;15.396;2022-08-02T04:06:09;97619.72;;;19.78;94.00
22580;BME280;11456;47.030;15.396;2022-08-02T04:08:35;97619.69;;;19.85;93.56
22580;BME280;11456;47.030;15.396;2022-08-02T04:11:04;97621.00;;;19.76;93.94
22580;BME280;11456;47.030;15.396;2022-08-02T04:13:50;97626.84;;;19.66;95.20
22580;BME280;11456;47.030;15.396;2022-08-02T04:16:20;97635.69;;;19.88;94.02
22580;BME280;11456;47.030;15.396;2022-08-02T04:18:54;97628.53;;;19.67;93.91
22580;BME280;11456;47.030;15.396;2022-08-02T04:21:25;97635.28;;;19.71;94.56
22580;BME280;11456;47.030;15.396;2022-08-02T04:24:13;97633.16;;;19.73;93.75
22580;BME280;11456;47.030;15.396;2022-08-02T04:26:44;97639.91;;;19.57;94.02
22580;BME280;11456;47.030;15.396;2022-08-02T04:29:16;97647.06;;;19.52;96.30
22580;BME280;11456;47.030;15.396;2022-08-02T04:31:44;97636.09;;;19.78;95.73
22580;BME280;11456;47.030;15.396;2022-08-02T04:34:11;97643.50;;;19.71;97.81
22580;BME280;11456;47.030;15.396;2022-08-02T04:36:41;97644.09;;;19.73;98.70
22580;BME280;11456;47.030;15.396;2022-08-02T04:39:08;97652.09;;;19.88;98.69
22580;BME280;11456;47.030;15.396;2022-08-02T04:41:40;97659.22;;;20.09;97.40
22580;BME280;11456;47.030;15.396;2022-08-02T04:44:10;97653.31;;;20.12;96.80
22580;BME280;11456;47.030;15.396;2022-08-02T04:46:39;97658.38;;;20.15;97.05
22580;BME280;11456;47.030;15.396;2022-08-02T04:49:06;97660.06;;;20.16;97.39
22580;BME280;11456;47.030;15.396;2022-08-02T04:51:34;97657.31;;;20.29;94.70
22580;BME280;11456;47.030;15.396;2022-08-02T04:54:05;97671.81;;;20.23;95.10
22580;BME280;11456;47.030;15.396;2022-08-02T04:56:39;97668.00;;;20.30;94.89
22580;BME280;11456;47.030;15.396;2022-08-02T04:59:06;97668.84;;;20.31;95.06
22580;BME280;11456;47.030;15.396;2022-08-02T05:01:33;97672.22;;;20.46;94.79
22580;BME280;11456;47.030;15.396;2022-08-02T05:04:01;97673.09;;;20.40;95.62
22580;BME280;11456;47.030;15.396;2022-08-02T05:06:28;97674.91;;;20.66;94.36
22580;BME280;11456;47.030;15.396;2022-08-02T05:08:55;97669.50;;;20.97;92.54
22580;BME280;11456;47.030;15.396;2022-08-02T05:11:22;97678.56;;;20.98;89.35
22580;BME280;11456;47.030;15.396;2022-08-02T05:14:01;97672.91;;;20.93;90.46
22580;BME280;11456;47.030;15.396;2022-08-02T05:16:28;97675.84;;;20.98;90.29
22580;BME280;11456;47.030;15.396;2022-08-02T05:18:57;97673.16;;;20.85;91.98
22580;BME280;11456;47.030;15.396;2022-08-02T05:21:24;97677.84;;;20.64;93.85
22580;BME280;11456;47.030;15.396;2022-08-02T05:23:50;97677.63;;;20.72;92.69
22580;BME280;11456;47.030;15.396;2022-08-02T05:26:17;97674.25;;;20.70;92.80
22580;BME280;11456;47.030;15.396;2022-08-02T05:28:44;97689.38;;;20.79;92.61
22580;BME280;11456;47.030;15.396;2022-08-02T05:31:10;97683.13;;;20.59;93.93
22580;BME280;11456;47.030;15.396;2022-08-02T05:33:39;97673.00;;;20.73;93.69
22580;BME280;11456;47.030;15.396;2022-08-02T05:36:06;97673.38;;;20.76;91.90
22580;BME280;11456;47.030;15.396;2022-08-02T05:38:35;97675.91;;;20.78;91.91
22580;BME280;11456;47.030;15.396;2022-08-02T05:41:03;97674.19;;;20.90;90.23
22580;BME280;11456;47.030;15.396;2022-08-02T05:43:29;97678.75;;;21.03;89.71
22580;BME280;11456;47.030;15.396;2022-08-02T05:45:56;97680.47;;;20.97;89.99
22580;BME280;11456;47.030;15.396;2022-08-02T05:48:23;97682.94;;;21.12;89.17
22580;BME280;11456;47.030;15.396;2022-08-02T05:51:05;97678.16;;;20.94;89.67
22580;BME280;11456;47.030;15.396;2022-08-02T05:56:23;97690.53;;;20.39;93.08
22580;BME280;11456;47.030;15.396;2022-08-02T05:59:07;97689.28;;;20.48;91.89
22580;BME280;11456;47.030;15.396;2022-08-02T06:01:38;97692.59;;;20.63;88.53
22580;BME280;11456;47.030;15.396;2022-08-02T06:04:12;97689.59;;;20.78;87.62
22580;BME280;11456;47.030;15.396;2022-08-02T06:06:43;97692.25;;;20.98;85.26
22580;BME280;11456;47.030;15.396;2022-08-02T06:09:15;97703.56;;;21.08;85.16
22580;BME280;11456;47.030;15.396;2022-08-02T06:11:52;97696.00;;;21.16;85.99
22580;BME280;11456;47.030;15.396;2022-08-02T06:14:38;97701.28;;;21.49;83.36
22580;BME280;11456;47.030;15.396;2022-08-02T06:17:07;97708.31;;;21.70;82.98
22580;BME280;11456;47.030;15.396;2022-08-02T06:19:37;97712.94;;;21.76;83.43
22580;BME280;11456;47.030;15.396;2022-08-02T06:22:19;97715.78;;;21.88;82.43
22580;BME280;11456;47.030;15.396;2022-08-02T06:25:00;97719.84;;;22.35;78.20
22580;BME280;11456;47.030;15.396;2022-08-02T06:27:29;97720.75;;;23.27;73.03
22580;BME280;11456;47.030;15.396;2022-08-02T06:29:56;97716.69;;;23.47;71.12
22580;BME280;11456;47.030;15.396;2022-08-02T06:32:25;97715.69;;;23.42;72.88
22580;BME280;11456;47.030;15.396;2022-08-02T06:34:52;97725.03;;;24.12;72.07
22580;BME280;11456;47.030;15.396;2022-08-02T06:40:24;97724.00;;;24.95;72.20
22580;BME280;11456;47.030;15.396;2022-08-02T06:45:34;97734.72;;;25.88;63.80
22580;BME280;11456;47.030;15.396;2022-08-02T06:48:01;97732.44;;;26.63;62.26
22580;BME280;11456;47.030;15.396;2022-08-02T06:50:28;97731.66;;;26.01;62.75
22580;BME280;11456;47.030;15.396;2022-08-02T06:52:55;97725.19;;;24.99;65.71
22580;BME280;11456;47.030;15.396;2022-08-02T06:55:22;97719.56;;;25.45;63.92
22580;BME280;11456;47.030;15.396;2022-08-02T06:57:49;97736.16;;;25.22;63.94
22580;BME280;11456;47.030;15.396;2022-08-02T07:00:19;97724.38;;;25.38;64.22
22580;BME280;11456;47.030;15.396;2022-08-02T07:02:45;97732.97;;;25.82;62.05
22580;BME280;11456;47.030;15.396;2022-08-02T07:05:12;97726.38;;;25.83;61.75
22580;BME280;11456;47.030;15.396;2022-08-02T07:07:39;97731.91;;;26.00;61.30
22580;BME280;11456;47.030;15.396;2022-08-02T07:10:06;97729.25;;;26.05;59.88
22580;BME280;11456;47.030;15.396;2022-08-02T07:12:33;97730.09;;;26.05;59.41
22580;BME280;11456;47.030;15.396;2022-08-02T07:15:03;97734.41;;;26.29;59.18
22580;BME280;11456;47.030;15.396;2022-08-02T07:17:31;97724.63;;;25.93;58.30
22580;BME280;11456;47.030;15.396;2022-08-02T07:19:59;97727.06;;;25.62;59.25
22580;BME280;11456;47.030;15.396;2022-08-02T07:22:27;97722.84;;;25.71;60.57
22580;BME280;11456;47.030;15.396;2022-08-02T07:24:55;97726.09;;;25.56;60.98
22580;BME280;11456;47.030;15.396;2022-08-02T07:27:22;97728.31;;;25.99;59.40
22580;BME280;11456;47.030;15.396;2022-08-02T07:29:49;97726.22;;;26.06;59.86
22580;BME280;11456;47.030;15.396;2022-08-02T07:32:17;97729.81;;;25.62;60.95
22580;BME280;11456;47.030;15.396;2022-08-02T07:34:45;97728.13;;;25.61;61.61
22580;BME280;11456;47.030;15.396;2022-08-02T07:37:22;97731.84;;;25.26;62.89
22580;BME280;11456;47.030;15.396;2022-08-02T07:40:10;97737.88;;;25.00;62.61
22580;BME280;11456;47.030;15.396;2022-08-02T07:42:43;97738.53;;;25.30;62.04
22580;BME280;11456;47.030;15.396;2022-08-02T07:45:12;97743.84;;;25.20;63.26
22580;BME280;11456;47.030;15.396;2022-08-02T07:47:40;97734.88;;;25.81;60.97
22580;BME280;11456;47.030;15.396;2022-08-02T07:50:07;97735.97;;;26.25;58.92
22580;BME280;11456;47.030;15.396;2022-08-02T07:52:35;97737.06;;;26.58;56.72
22580;BME280;11456;47.030;15.396;2022-08-02T07:55:02;97726.81;;;26.08;58.21
22580;BME280;11456;47.030;15.396;2022-08-02T07:57:29;97731.97;;;26.66;56.98
22580;BME280;11456;47.030;15.396;2022-08-02T07:59:56;97736.66;;;26.66;56.93
22580;BME280;11456;47.030;15.396;2022-08-02T08:02:23;97725.19;;;27.12;57.31
22580;BME280;11456;47.030;15.396;2022-08-02T08:04:51;97726.56;;;27.80;53.93
22580;BME280;11456;47.030;15.396;2022-08-02T08:07:18;97722.84;;;27.48;53.09
22580;BME280;11456;47.030;15.396;2022-08-02T08:09:45;97717.69;;;28.32;49.96
22580;BME280;11456;47.030;15.396;2022-08-02T08:12:20;97717.97;;;29.77;42.20
22580;BME280;11456;47.030;15.396;2022-08-02T08:14:47;97719.47;;;30.35;42.02
22580;BME280;11456;47.030;15.396;2022-08-02T08:17:14;97718.94;;;30.58;41.37
22580;BME280;11456;47.030;15.396;2022-08-02T08:19:40;97710.84;;;30.87;41.33
22580;BME280;11456;47.030;15.396;2022-08-02T08:22:21;97712.38;;;29.57;43.09
22580;BME280;11456;47.030;15.396;2022-08-02T08:24:48;97721.06;;;29.18;43.94
22580;BME280;11456;47.030;15.396;2022-08-02T08:27:16;97712.84;;;28.86;44.43
22580;BME280;11456;47.030;15.396;2022-08-02T08:29:44;97719.53;;;28.53;44.14
22580;BME280;11456;47.030;15.396;2022-08-02T08:32:12;97724.88;;;29.07;42.94
22580;BME280;11456;47.030;15.396;2022-08-02T08:34:47;97731.41;;;30.86;38.11
22580;BME280;11456;47.030;15.396;2022-08-02T08:37:14;97729.19;;;30.38;38.74
22580;BME280;11456;47.030;15.396;2022-08-02T08:39:45;97727.84;;;30.71;39.18
22580;BME280;11456;47.030;15.396;2022-08-02T08:42:23;97731.41;;;30.10;40.42
22580;BME280;11456;47.030;15.396;2022-08-02T08:44:50;97728.63;;;30.00;40.77
22580;BME280;11456;47.030;15.396;2022-08-02T08:47:17;97732.53;;;30.24;42.50
22580;BME280;11456;47.030;15.396;2022-08-02T08:49:49;97734.78;;;30.27;44.85
22580;BME280;11456;47.030;15.396;2022-08-02T08:52:19;97732.53;;;30.80;43.90
22580;BME280;11456;47.030;15.396;2022-08-02T08:54:49;97735.91;;;30.52;43.81
22580;BME280;11456;47.030;15.396;2022-08-02T08:57:18;97733.38;;;31.11;42.75
22580;BME280;11456;47.030;15.396;2022-08-02T08:59:46;97741.41;;;30.11;44.81
22580;BME280;11456;47.030;15.396;2022-08-02T09:02:13;97741.31;;;29.91;42.90
22580;BME280;11456;47.030;15.396;2022-08-02T09:04:48;97738.09;;;30.19;42.03
22580;BME280;11456;47.030;15.396;2022-08-02T09:07:21;97744.16;;;31.18;39.31
22580;BME280;11456;47.030;15.396;2022-08-02T09:09:48;97750.88;;;30.41;41.60
22580;BME280;11456;47.030;15.396;2022-08-02T09:12:15;97752.38;;;29.66;43.07
22580;BME280;11456;47.030;15.396;2022-08-02T09:14:44;97751.72;;;30.97;41.28
22580;BME280;11456;47.030;15.396;2022-08-02T09:17:16;97755.63;;;29.42;44.22
22580;BME280;11456;47.030;15.396;2022-08-02T09:19:43;97748.84;;;28.81;46.05
22580;BME280;11456;47.030;15.396;2022-08-02T09:22:13;97748.56;;;29.25;45.17
22580;BME280;11456;47.030;15.396;2022-08-02T09:24:48;97751.91;;;28.80;45.92
22580;BME280;11456;47.030;15.396;2022-08-02T09:27:18;97753.00;;;28.47;46.56
22580;BME280;11456;47.030;15.396;2022-08-02T09:29:51;97748.00;;;28.17;46.44
22580;BME280;11456;47.030;15.396;2022-08-02T09:32:45;97751.78;;;28.69;46.83
22580;BME280;11456;47.030;15.396;2022-08-02T09:35:13;97750.91;;;29.43;44.66
22580;BME280;11456;47.030;15.396;2022-08-02T09:38:16;97752.84;;;29.47;43.91
22580;BME280;11456;47.030;15.396;2022-08-02T09:40:42;97744.72;;;29.93;43.76
22580;BME280;11456;47.030;15.396;2022-08-02T09:43:09;97748.38;;;30.80;41.95
22580;BME280;11456;47.030;15.396;2022-08-02T09:45:36;97741.31;;;29.91;42.61
22580;BME280;11456;47.030;15.396;2022-08-02T09:48:06;97745.59;;;29.36;43.67
22580;BME280;11456;47.030;15.396;2022-08-02T09:50:39;97742.91;;;29.04;42.88
22580;BME280;11456;47.030;15.396;2022-08-02T09:53:12;97738.44;;;29.51;43.08
22580;BME280;11456;47.030;15.396;2022-08-02T09:55:40;97742.91;;;29.04;43.78
22580;BME280;11456;47.030;15.396;2022-08-02T09:58:20;97739.56;;;28.65;43.77
22580;BME280;11456;47.030;15.396;2022-08-02T10:00:55;97743.72;;;28.68;44.50
22580;BME280;11456;47.030;15.396;2022-08-02T10:03:22;97746.06;;;27.90;46.67
22580;BME280;11456;47.030;15.396;2022-08-02T10:06:01;97771.78;;;27.64;47.39
22580;BME280;11456;47.030;15.396;2022-08-02T10:08:30;97771.50;;;27.44;47.68
22580;BME280;11456;47.030;15.396;2022-08-02T10:10:59;97785.38;;;25.42;56.90
22580;BME280;11456;47.030;15.396;2022-08-02T10:13:31;97774.47;;;24.19;64.84
22580;BME280;11456;47.030;15.396;2022-08-02T10:15:59;97790.66;;;23.12;72.41
22580;BME280;11456;47.030;15.396;2022-08-02T10:18:28;97794.94;;;23.45;69.40
22580;BME280;11456;47.030;15.396;2022-08-02T10:21:13;97790.22;;;23.15;71.98
22580;BME280;11456;47.030;15.396;2022-08-02T10:23:42;97802.19;;;23.03;71.28
22580;BME280;11456;47.030;15.396;2022-08-02T10:26:13;97800.16;;;22.49;72.76
22580;BME280;11456;47.030;15.396;2022-08-02T10:28:41;97789.63;;;22.46;70.42
22580;BME280;11456;47.030;15.396;2022-08-02T10:31:11;97787.78;;;22.64;67.94
22580;BME280;11456;47.030;15.396;2022-08-02T10:33:40;97790.22;;;22.48;66.72
22580;BME280;11456;47.030;15.396;2022-08-02T10:36:13;97794.13;;;22.09;71.99
22580;BME280;11456;47.030;15.396;2022-08-02T10:38:42;97787.53;;;22.16;76.13
22580;BME280;11456;47.030;15.396;2022-08-02T10:41:10;97792.00;;;21.73;78.38
22580;BME280;11456;47.030;15.396;2022-08-02T10:46:23;97787.28;;;21.55;77.37
22580;BME280;11456;47.030;15.396;2022-08-02T10:49:13;97785.19;;;21.50;79.13
22580;BME280;11456;47.030;15.396;2022-08-02T10:56:58;97792.88;;;21.22;86.68
22580;BME280;11456;47.030;15.396;2022-08-02T11:01:55;97786.38;;;21.03;85.08
22580;BME280;11456;47.030;15.396;2022-08-02T11:04:29;97792.03;;;21.15;89.13
22580;BME280;11456;47.030;15.396;2022-08-02T11:07:15;97791.53;;;21.44;89.64
22580;BME280;11456;47.030;15.396;2022-08-02T11:09:46;97790.28;;;21.40;92.14
22580;BME280;11456;47.030;15.396;2022-08-02T11:12:16;97782.28;;;21.32;89.08
22580;BME280;11456;47.030;15.396;2022-08-02T11:14:45;97787.00;;;21.25;89.60
22580;BME280;11456;47.030;15.396;2022-08-02T11:17:23;97783.06;;;21.52;87.88
22580;BME280;11456;47.030;15.396;2022-08-02T11:22:36;97786.56;;;22.04;87.41
22580;BME280;11456;47.030;15.396;2022-08-02T11:27:52;97802.41;;;22.33;88.33
22580;BME280;11456;47.030;15.396;2022-08-02T11:30:20;97801.50;;;22.39;88.67
22580;BME280;11456;47.030;15.396;2022-08-02T11:32:59;97797.00;;;22.70;88.58
22580;BME280;11456;47.030;15.396;2022-08-02T11:35:37;97794.06;;;22.47;84.13
22580;BME280;11456;47.030;15.396;2022-08-02T11:38:17;97786.09;;;23.06;81.72
22580;BME280;11456;47.030;15.396;2022-08-02T11:40:45;97786.41;;;23.53;75.40
22580;BME280;11456;47.030;15.396;2022-08-02T11:43:17;97786.03;;;23.79;75.19
22580;BME280;11456;47.030;15.396;2022-08-02T11:45:44;97779.66;;;24.09;77.19
22580;BME280;11456;47.030;15.396;2022-08-02T11:48:12;97773.78;;;24.35;72.56
22580;BME280;11456;47.030;15.396;2022-08-02T11:50:39;97775.59;;;24.41;72.72
22580;BME280;11456;47.030;15.396;2022-08-02T11:53:14;97775.69;;;24.23;73.53
22580;BME280;11456;47.030;15.396;2022-08-02T11:55:41;97766.03;;;24.55;74.02
22580;BME280;11456;47.030;15.396;2022-08-02T11:58:08;97760.06;;;24.93;72.47
22580;BME280;11456;47.030;15.396;2022-08-02T12:00:37;97765.56;;;25.05;70.95
22580;BME280;11456;47.030;15.396;2022-08-02T12:03:05;97762.53;;;25.18;71.06
22580;BME280;11456;47.030;15.396;2022-08-02T12:05:32;97765.31;;;24.60;69.69
22580;BME280;11456;47.030;15.396;2022-08-02T12:08:19;97764.09;;;24.67;69.22
22580;BME280;11456;47.030;15.396;2022-08-02T12:10:50;97775.47;;;24.59;69.99
22580;BME280;11456;47.030;15.396;2022-08-02T12:13:17;97775.97;;;24.91;71.31
22580;BME280;11456;47.030;15.396;2022-08-02T12:15:45;97771.31;;;25.03;72.00
22580;BME280;11456;47.030;15.396;2022-08-02T12:18:19;97765.56;;;24.70;72.74
22580;BME280;11456;47.030;15.396;2022-08-02T12:21:23;97764.72;;;24.69;71.83
22580;BME280;11456;47.030;15.396;2022-08-02T12:23:50;97769.97;;;24.59;73.58
22580;BME280;11456;47.030;15.396;2022-08-02T12:26:27;97762.09;;;24.98;70.29
22580;BME280;11456;47.030;15.396;2022-08-02T12:28:56;97769.53;;;25.49;68.97
22580;BME280;11456;47.030;15.396;2022-08-02T12:31:45;97766.34;;;25.40;69.57
22580;BME280;11456;47.030;15.396;2022-08-02T12:34:24;97760.03;;;25.56;71.66
22580;BME280;11456;47.030;15.396;2022-08-02T12:37:05;97760.84;;;25.97;69.45
22580;BME280;11456;47.030;15.396;2022-08-02T12:42:06;97768.63;;;26.62;66.35
22580;BME280;11456;47.030;15.396;2022-08-02T12:44:34;97764.41;;;27.09;60.69
22580;BME280;11456;47.030;15.396;2022-08-02T12:47:04;97770.41;;;27.67;57.87
22580;BME280;11456;47.030;15.396;2022-08-02T12:49:31;97761.22;;;27.61;57.27
22580;BME280;11456;47.030;15.396;2022-08-02T12:51:58;97759.28;;;28.37;52.34
22580;BME280;11456;47.030;15.396;2022-08-02T12:54:38;97766.41;;;28.92;48.64
22580;BME280;11456;47.030;15.396;2022-08-02T12:57:10;97765.16;;;29.20;48.07
22580;BME280;11456;47.030;15.396;2022-08-02T12:59:38;97762.34;;;28.73;45.84
22580;BME280;11456;47.030;15.396;2022-08-02T13:02:08;97769.53;;;28.10;50.61
22580;BME280;11456;47.030;15.396;2022-08-02T13:04:37;97775.44;;;27.70;53.05
22580;BME280;11456;47.030;15.396;2022-08-02T13:07:04;97767.72;;;27.99;51.37
22580;BME280;11456;47.030;15.396;2022-08-02T13:09:35;97766.59;;;27.95;52.31
22580;BME280;11456;47.030;15.396;2022-08-02T13:12:03;97758.13;;;28.33;50.71
22580;BME280;11456;47.030;15.396;2022-08-02T13:14:33;97757.81;;;29.40;49.16
22580;BME280;11456;47.030;15.396;2022-08-02T13:17:07;97754.59;;;29.69;48.47
22580;BME280;11456;47.030;15.396;2022-08-02T13:19:35;97745.63;;;29.46;44.82
22580;BME280;11456;47.030;15.396;2022-08-02T13:22:02;97740.63;;;29.43;47.27
22580;BME280;11456;47.030;15.396;2022-08-02T13:24:30;97733.44;;;29.58;45.64
22580;BME280;11456;47.030;15.396;2022-08-02T13:27:07;97728.06;;;30.03;45.33
22580;BME280;11456;47.030;15.396;2022-08-02T13:29:37;97727.81;;;30.40;45.82
22580;BME280;11456;47.030;15.396;2022-08-02T13:32:05;97737.00;;;28.91;48.66
22580;BME280;11456;47.030;15.396;2022-08-02T13:34:31;97731.56;;;29.11;49.68
22580;BME280;11456;47.030;15.396;2022-08-02T13:36:58;97725.00;;;30.05;48.30
22580;BME280;11456;47.030;15.396;2022-08-02T13:39:25;97725.34;;;30.49;45.36
22580;BME280;11456;47.030;15.396;2022-08-02T13:41:51;97720.03;;;30.27;47.41
22580;BME280;11456;47.030;15.396;2022-08-02T13:44:18;97721.84;;;29.71;48.17
22580;BME280;11456;47.030;15.396;2022-08-02T13:46:45;97709.22;;;30.56;46.41